Flight Track Log - Related Links

Times and Time Zones

All times are in EDT time to prevent confusion due to time zone crossing. See the EJA930 flight status page for this flight to view local times or setup timezone preferences in your user account.

Time Position Orientation Groundspeed Altitude Reporting Facility
EDT Latitude Longitude Course Direction KTS MPH feet Rate Location/Type
Thu 09:17:45 AM 40.8167 -74.1167 270° West 210 242 1,500  Level New York TRACON
Thu 09:18:45 AM 40.8167 -74.2000 270° West 215 247 2,900 1,953 Climbing New York TRACON
Thu 09:20:37 AM 40.8322 -74.3528 278° West 259 298 7,100 2,462 Climbing New York Center
Thu 09:21:38 AM 40.8414 -74.4631 276° West 275 316 10,000 2,380 Climbing New York Center
Thu 09:22:38 AM 40.8364 -74.5533 266° West 275 316 11,900 1,831 Climbing New York Center
Thu 09:23:00 AM 40.8000 -75.0824 270° West  Level FlightAware Approximate
Thu 09:23:36 AM 40.8303 -74.6792 266° West 292 336 13,600  Level New York Center
Thu 09:24:38 AM 40.8247 -74.7831 266° West 318 366 15,100 1,537 Climbing New York Center
Thu 09:25:37 AM 40.8158 -74.9194 265° West 330 380 16,700 1,600 Climbing New York Center
Thu 09:26:38 AM 40.8097 -75.0317 266° West 340 391 18,300 1,636 Climbing New York Center
Thu 09:27:38 AM 40.7961 -75.1733 263° West 352 405 20,000 1,475 Climbing New York Center
Thu 09:28:36 AM 40.7692 -75.2839 252° West 357 411 21,200 1,462 Climbing New York Center
Thu 09:29:37 AM 40.7203 -75.4147 244° Southwest 362 417 22,900 1,636 Climbing New York Center
Thu 09:30:37 AM 40.6758 -75.5350 244° Southwest 368 423 24,500 1,587 Climbing New York Center
Thu 09:31:38 AM 40.6314 -75.6578 245° Southwest 378 435 26,100 1,537 Climbing New York Center
Thu 09:32:38 AM 40.5914 -75.7669 244° Southwest 372 428 27,600 1,590 Climbing New York Center
Thu 09:33:35 AM 40.5417 -75.9025 244° Southwest 372 428 29,200 1,322 Climbing New York Center
Thu 09:34:36 AM 40.4950 -76.0164 242° Southwest 377 434 30,200 1,082 Climbing New York Center
Thu 09:35:37 AM 40.4475 -76.1492 245° Southwest 388 447 31,400 1,180 Climbing New York Center
Thu 09:36:38 AM 40.3975 -76.2844 244° Southwest 410 472 32,600 1,210 Climbing New York Center
Thu 09:37:36 AM 40.3633 -76.4289 253° West 415 478 33,800 1,200 Climbing New York Center
Thu 09:38:38 AM 40.3539 -76.5833 265° West 421 484 35,000 1,190 Climbing New York Center
Thu 09:39:37 AM 40.3442 -76.7378 265° West 426 490 36,200 1,150 Climbing New York Center
Thu 09:40:38 AM 40.3339 -76.8947 265° West 431 496 37,300 1,150 Climbing New York Center
Thu 09:41:37 AM 40.3256 -77.0547 266° West 436 502 38,500 1,261 Climbing New York Center
Thu 09:42:37 AM 40.3131 -77.2114 264° West 441 507 39,800 450 Climbing New York Center
Thu 09:44:57 AM 40.2911 -77.6133 266° West 449 517 40,000 60 Climbing Cleveland Center
Thu 09:45:57 AM 40.2767 -77.7881 264° West 471 542 40,000  Level Cleveland Center
Thu 09:46:57 AM 40.2603 -77.9683 263° West 490 564 40,000  Level Cleveland Center
Thu 09:47:57 AM 40.2475 -78.1431 265° West 490 564 40,000  Level Cleveland Center
Thu 09:48:57 AM 40.2344 -78.3175 264° West 490 564 40,000  Level Cleveland Center
Thu 09:49:57 AM 40.2211 -78.4922 264° West 490 564 40,000  Level Cleveland Center
Thu 09:50:57 AM 40.2075 -78.6664 264° West 490 564 40,000  Level Cleveland Center
Thu 09:51:57 AM 40.1936 -78.8436 264° West 490 564 40,000  Level Cleveland Center
Thu 09:52:57 AM 40.1772 -79.0178 263° West 490 564 40,000  Level Cleveland Center
Thu 09:53:57 AM 40.1628 -79.1894 264° West 484 557 40,000  Level Cleveland Center
Thu 09:54:57 AM 40.1542 -79.3444 266° West 484 557 40,000  Level Cleveland Center
Thu 09:55:57 AM 40.1372 -79.5158 263° West 484 557 40,000  Level Cleveland Center
Thu 09:57:00 AM 40.1172 -79.6915 262° West  Level FlightAware Approximate
Thu 09:57:57 AM 40.1086 -79.8583 262° West 484 557 40,000  Level Cleveland Center
Thu 09:58:57 AM 40.0889 -80.0511 262° West 484 557 40,000  Level Cleveland Center
Thu 09:59:57 AM 40.0708 -80.2194 262° West 476 548 40,000  Level Cleveland Center
Thu 10:00:57 AM 40.0608 -80.3742 265° West 481 554 40,000  Level Cleveland Center
Thu 10:01:57 AM 40.0464 -80.5450 264° West 481 554 40,000  Level Cleveland Center
Thu 10:03:50 AM 40.0139 -80.8644 263° West 484 557 40,000  Level Indianapolis Center
Thu 10:04:52 AM 40.0125 -81.0697 270° West 484 557 40,000  Level Indianapolis Center
Thu 10:05:54 AM 40.0100 -81.2469 269° West 484 557 40,000  Level Indianapolis Center
Thu 10:06:56 AM 40.0067 -81.4256 269° West 487 560 40,000  Level Indianapolis Center
Thu 10:07:58 AM 40.0036 -81.6033 269° West 485 558 40,000  Level Indianapolis Center
Thu 10:09:00 AM 39.9989 -81.7975 268° West 491 565 40,000  Level Indianapolis Center
Thu 10:10:02 AM 39.9953 -81.9756 269° West 488 562 40,000  Level Indianapolis Center
Thu 10:11:04 AM 39.9911 -82.1539 268° West 489 563 40,000  Level Indianapolis Center
Thu 10:12:06 AM 39.9861 -82.3331 268° West 490 564 40,000  Level Indianapolis Center
Thu 10:13:08 AM 39.9822 -82.5106 268° West 489 563 40,000  Level Indianapolis Center
Thu 10:14:10 AM 39.9761 -82.6889 267° West 489 563 40,000  Level Indianapolis Center
Thu 10:15:12 AM 39.9700 -82.8978 268° West 492 566 40,000  Level Indianapolis Center
Thu 10:16:14 AM 39.9653 -83.0778 268° West 493 567 40,000  Level Indianapolis Center
Thu 10:17:16 AM 39.9617 -83.2550 269° West 490 564 40,000  Level Indianapolis Center
Thu 10:18:18 AM 39.9567 -83.4286 268° West 486 559 40,000  Level Indianapolis Center
Thu 10:19:20 AM 39.9497 -83.6014 267° West 496 571 40,000  Level Indianapolis Center
Thu 10:20:23 AM 39.9408 -83.8039 267° West 485 558 40,000  Level Indianapolis Center
Thu 10:21:25 AM 39.9336 -83.9811 267° West 487 560 40,000  Level Indianapolis Center
Thu 10:22:27 AM 39.9269 -84.1581 267° West 488 562 40,000  Level Indianapolis Center
Thu 10:23:29 AM 39.9186 -84.3375 267° West 492 566 40,000  Level Indianapolis Center
Thu 10:24:31 AM 39.9122 -84.5144 267° West 485 558 40,000  Level Indianapolis Center
Thu 10:25:33 AM 39.9031 -84.6889 266° West 481 554 40,000  Level Indianapolis Center
Thu 10:26:35 AM 39.8950 -84.8619 267° West 476 548 40,000  Level Indianapolis Center
Thu 10:27:37 AM 39.8853 -85.0617 266° West 478 550 40,000  Level Indianapolis Center
Thu 10:28:39 AM 39.8778 -85.2358 267° West 481 554 40,000  Level Indianapolis Center
Thu 10:29:41 AM 39.8683 -85.4083 266° West 480 552 40,000  Level Indianapolis Center
Thu 10:30:43 AM 39.8589 -85.5808 266° West 480 552 40,000  Level Indianapolis Center
Thu 10:31:45 AM 39.8497 -85.7514 266° West 476 548 40,000  Level Indianapolis Center
Thu 10:32:47 AM 39.8394 -85.9542 266° West 472 543 40,000  Level Indianapolis Center
Thu 10:33:49 AM 39.8306 -86.1219 266° West 470 541 40,000  Level Indianapolis Center
Thu 10:34:51 AM 39.8175 -86.2939 264° West 475 547 40,000  Level Indianapolis Center
Thu 10:35:53 AM 39.8167 -86.4536 270° West 473 544 40,000  Level Indianapolis Center
Thu 10:36:55 AM 39.8206 -86.6561 271° West 471 542 40,000  Level Indianapolis Center
Thu 10:37:57 AM 39.8236 -86.8236 271° West 468 539 40,000  Level Indianapolis Center
Thu 10:38:59 AM 39.8264 -86.9936 271° West 471 542 40,000  Level Indianapolis Center
Thu 10:40:01 AM 39.8294 -87.1625 271° West 470 541 40,000  Level Indianapolis Center
Thu 10:41:04 AM 39.8311 -87.3331 271° West 472 543 40,000  Level Indianapolis Center
Thu 10:42:06 AM 39.8344 -87.5372 271° West 472 543 40,000  Level Indianapolis Center
Thu 10:43:08 AM 39.8369 -87.7081 271° West 473 544 40,000  Level Indianapolis Center
Thu 10:44:10 AM 39.8372 -87.8797 270° West 475 547 40,000  Level Indianapolis Center
Thu 10:45:12 AM 39.8389 -88.0506 271° West 474 545 40,000  Level Indianapolis Center
Thu 10:46:14 AM 39.8406 -88.2211 271° West 473 544 40,000  Level Indianapolis Center
Thu 10:47:16 AM 39.8414 -88.3922 270° West 474 545 40,000  Level Indianapolis Center
Thu 10:47:46 AM 39.8411 -88.5017 270° West 472 543 40,000  Level Kansas City Center
Thu 10:48:48 AM 39.8444 -88.6725 272° West 472 543 40,000  Level Kansas City Center
Thu 10:49:50 AM 39.8547 -88.8411 275° West 469 540 40,000  Level Kansas City Center
Thu 10:50:52 AM 39.8631 -89.0094 274° West 467 537 40,000  Level Kansas City Center
Thu 10:51:54 AM 39.8717 -89.1792 274° West 467 537 40,000  Level Kansas City Center
Thu 10:52:56 AM 39.8797 -89.3497 274° West 469 540 40,000  Level Kansas City Center
Thu 10:53:58 AM 39.8889 -89.5161 274° West 466 536 40,000  Level Kansas City Center
Thu 10:55:00 AM 39.8989 -89.7192 274° West 466 536 40,000  Level Kansas City Center
Thu 10:56:00 AM 39.9000 -89.8857 270° West  Level FlightAware Approximate
Thu 11:03:00 AM 39.9743 -91.0473 275° West  Level FlightAware Approximate
Thu 11:03:04 AM 39.9847 -91.0650 275° West 461 531 40,000  Level Kansas City Center
Thu 11:04:00 AM 39.9843 -91.2134 275° West  Level FlightAware Approximate
Thu 11:04:06 AM 39.9956 -91.2306 275° West 461 531 40,000  Level Kansas City Center
Thu 11:05:00 AM 39.9940 -91.3796 274° West  Level FlightAware Approximate
Thu 11:05:08 AM 40.0061 -91.3950 275° West 460 529 40,000  Level Kansas City Center
Thu 11:06:00 AM 40.0041 -91.5458 275° West  Level FlightAware Approximate
Thu 11:06:10 AM 40.0161 -91.5603 275° West 460 529 40,000  Level Kansas City Center
Thu 11:07:00 AM 40.0148 -91.7119 275° West  Level FlightAware Approximate
Thu 11:07:12 AM 40.0258 -91.7256 274° West 461 531 40,000  Level Kansas City Center
Thu 11:08:00 AM 40.0252 -91.8781 275° West  Level FlightAware Approximate
Thu 11:08:14 AM 40.0375 -91.9236 274° West 460 529 40,000  Level Kansas City Center
Thu 11:09:16 AM 40.0469 -92.0897 274° West 461 531 40,000  Level Kansas City Center
Thu 11:10:18 AM 40.0553 -92.2561 274° West 461 531 40,000 97 Level Kansas City Center
Thu 11:11:20 AM 40.0639 -92.4411 274° West 461 531 40,200 484 Climbing Kansas City Center
Thu 11:12:22 AM 40.0725 -92.6000 274° West 460 529 41,000 823 Climbing Kansas City Center
Thu 11:13:24 AM 40.0825 -92.7808 274° West 450 518 41,900 774 Climbing Kansas City Center
Thu 11:14:26 AM 40.0903 -92.9328 274° West 443 510 42,600 532 Climbing Kansas City Center
Thu 11:15:28 AM 40.0969 -93.1044 273° West 439 505 43,000 194 Climbing Kansas City Center
Thu 11:16:30 AM 40.1061 -93.2669 274° West 447 514 43,000  Level Kansas City Center
Thu 11:17:32 AM 40.1117 -93.4286 273° West 448 516 43,000  Level Kansas City Center
Thu 11:18:34 AM 40.1197 -93.5844 274° West 439 505 43,000  Level Kansas City Center
Thu 11:19:36 AM 40.1258 -93.7375 273° West 429 494 43,000  Level Kansas City Center
Thu 11:20:38 AM 40.1331 -93.9253 273° West 433 498 43,000 629 Level Kansas City Center
Thu 11:21:40 AM 40.1572 -94.0756 282° West 427 491 44,300 968 Climbing Kansas City Center
Thu 11:22:42 AM 40.1858 -94.2264 284° West 409 471 45,000 336 Climbing Kansas City Center
Thu 11:23:45 AM 40.2122 -94.3678 284° West 416 479 45,000 48 Level Kansas City Center
Thu 11:24:47 AM 40.2489 -94.5386 286° West 432 497 45,100 97 Climbing Kansas City Center
Thu 11:25:49 AM 40.2800 -94.6836 286° West 435 501 45,200 677 Climbing Kansas City Center
Thu 11:26:51 AM 40.3178 -94.8525 286° West 434 499 46,500 931 Climbing Kansas City Center
Thu 11:27:45 AM 40.3444 -94.9761 286° West 423 487 47,000 169 Climbing Minneapolis Center
Thu 11:29:49 AM 40.3733 -95.2878 277° West 433 498 47,000  Level Minneapolis Center
Thu 11:30:52 AM 40.3856 -95.4831 275° West 444 511 47,000  Level Minneapolis Center
Thu 11:31:54 AM 40.3944 -95.6464 274° West 447 514 47,000  Level Minneapolis Center
Thu 11:32:56 AM 40.3881 -95.8139 267° West 454 522 47,000  Level Minneapolis Center
Thu 11:33:58 AM 40.3814 -95.9819 267° West 459 528 47,000  Level Minneapolis Center
Thu 11:35:00 AM 40.3739 -96.1517 267° West 462 532 47,000  Level Minneapolis Center
Thu 11:36:02 AM 40.3667 -96.3236 267° West 468 539 47,000  Level Minneapolis Center
Thu 11:37:04 AM 40.3600 -96.4958 267° West 471 542 47,000  Level Minneapolis Center
Thu 11:38:06 AM 40.3508 -96.7047 267° West 475 547 47,000  Level Minneapolis Center
Thu 11:39:08 AM 40.3428 -96.8794 267° West 478 550 47,000  Level Minneapolis Center
Thu 11:40:10 AM 40.3353 -97.0558 267° West 482 555 47,000  Level Minneapolis Center
Thu 11:41:12 AM 40.3258 -97.2300 266° West 481 554 47,000  Level Minneapolis Center
Thu 11:42:15 AM 40.3175 -97.4097 267° West 481 554 47,000  Level Minneapolis Center
Thu 11:43:17 AM 40.3083 -97.5836 266° West 478 550 47,000 -145 Level Minneapolis Center
Thu 11:44:19 AM 40.2997 -97.7583 266° West 479 551 46,700 -484 Descending Minneapolis Center
Thu 11:45:21 AM 40.2875 -97.9706 266° West 484 557 46,000 -677 Descending Minneapolis Center
Thu 11:46:23 AM 40.2764 -98.1525 265° West 494 568 45,300 -677 Descending Minneapolis Center
Thu 11:47:25 AM 40.2658 -98.3375 266° West 503 579 44,600 -726 Descending Minneapolis Center
Thu 11:48:27 AM 40.2550 -98.5250 266° West 511 588 43,800 -726 Descending Minneapolis Center
Thu 11:49:29 AM 40.2431 -98.7106 265° West 511 588 43,100 -387 Descending Minneapolis Center
Thu 11:50:31 AM 40.2322 -98.8919 266° West 503 579 43,000 -48 Descending Minneapolis Center
Thu 11:51:33 AM 40.2200 -99.0728 265° West 498 573 43,000  Level Minneapolis Center
Thu 11:52:24 AM 40.2086 -99.2561 265° West 502 578 43,000 -265 Level Denver Center
Thu 11:53:26 AM 40.1958 -99.4425 265° West 510 587 42,500 -768 Descending Denver Center
Thu 11:54:29 AM 40.1831 -99.6272 265° West 510 587 41,400 -720 Descending Denver Center
Thu 11:55:31 AM 40.1706 -99.8072 265° West 499 574 41,000 -194 Descending Denver Center
Thu 11:56:33 AM 40.1550 -100.0139 264° West 506 582 41,000  Level Denver Center
Thu 11:57:35 AM 40.1425 -100.1881 265° West 504 580 41,000  Level Denver Center
Thu 11:58:37 AM 40.1292 -100.3647 264° West 505 581 41,000  Level Denver Center
Thu 11:59:39 AM 40.1131 -100.5711 264° West 509 586 41,000  Level Denver Center
Thu 12:00:41 PM 40.0986 -100.7478 264° West 509 586 41,000  Level Denver Center
Thu 12:01:43 PM 40.0811 -100.9525 264° West 507 583 41,000  Level Denver Center
Thu 12:02:45 PM 40.0669 -101.1314 264° West 512 589 41,000  Level Denver Center
Thu 12:03:47 PM 40.0494 -101.3389 264° West 514 592 41,000  Level Denver Center
Thu 12:04:49 PM 40.0347 -101.5164 264° West 514 592 41,000  Level Denver Center
Thu 12:06:03 PM 40.0172 -101.7239 264° West 513 590 41,000  Level Denver Center
Thu 12:07:06 PM 39.9978 -101.9297 263° West 512 589 41,000 -384 Level Denver Center
Thu 12:08:08 PM 39.9792 -102.1372 263° West 516 594 40,200 -484 Descending Denver Center
Thu 12:09:10 PM 39.9628 -102.3167 263° West 519 597 40,000 -97 Descending Denver Center
Thu 12:10:12 PM 39.9428 -102.5219 263° West 515 593 40,000  Level Denver Center
Thu 12:11:14 PM 39.9258 -102.6975 263° West 511 588 40,000  Level Denver Center
Thu 12:12:16 PM 39.9050 -102.9022 263° West 510 587 40,000  Level Denver Center
Thu 12:13:18 PM 39.8883 -103.0797 263° West 515 593 40,000  Level Denver Center
Thu 12:14:20 PM 39.8678 -103.2825 263° West 508 585 40,000  Level Denver Center
Thu 12:15:22 PM 39.8500 -103.4508 262° West 509 586 40,000  Level Denver Center
Thu 12:16:24 PM 39.8283 -103.6561 262° West 513 590 40,000  Level Denver Center
Thu 12:17:26 PM 39.8075 -103.8492 262° West 527 606 40,000  Level Denver Center
Thu 12:18:28 PM 39.7889 -104.0311 262° West 510 587 40,000  Level Denver Center
Thu 12:19:30 PM 39.7661 -104.2256 261° West 506 582 40,000 -48 Level Denver Center
Thu 12:20:32 PM 39.7461 -104.4078 262° West 508 585 39,900 -774 Descending Denver Center
Thu 12:21:34 PM 39.7239 -104.5914 261° West 516 594 38,400 -1,412 Descending Denver Center
Thu 12:22:48 PM 39.6994 -104.7958 261° West 526 605 36,700 -1,533 Descending Denver Center
Thu 12:23:51 PM 39.6753 -105.0242 262° West 517 595 34,900 -1,536 Descending Denver Center
Thu 12:24:53 PM 39.6589 -105.1661 262° West 517 595 33,500 -1,839 Descending Denver Center
Thu 12:25:55 PM 39.6278 -105.4097 261° West 523 602 31,100 -2,129 Descending Denver Center
Thu 12:26:57 PM 39.6047 -105.5964 261° West 524 603 29,100 -2,032 Descending Denver Center
Thu 12:27:59 PM 39.5817 -105.7783 261° West 514 592 26,900 -2,274 Descending Denver Center
Thu 12:29:01 PM 39.5581 -105.9683 261° West 493 567 24,400 -2,419 Descending Denver Center
Thu 12:30:03 PM 39.5367 -106.1369 261° West 476 548 21,900 -1,968 Descending Denver Center
Thu 12:31:06 PM 39.5169 -106.3022 261° West 466 536 20,300 -912 Descending Denver Center
Thu 12:32:08 PM 39.4961 -106.4603 260° West 450 518 20,000 -435 Descending Denver Center
Thu 12:33:10 PM 39.4756 -106.6181 260° West 389 448 19,400 -1,161 Descending Denver Center
Thu 12:34:12 PM 39.4186 -106.7100 231° Southwest 345 397 17,600 -1,258 Descending Denver Center
Thu 12:35:14 PM 39.3883 -106.7922 245° Southwest 300 345 16,800 -1,161 Descending Denver Center
Thu 12:36:16 PM 39.4539 -106.8408 330° Northwest 249 287 15,200 -1,790 Descending Denver Center
Thu 12:37:18 PM 39.4492 -106.9053 265° West 232 267 13,100 -1,790 Descending Denver Center
Thu 12:38:20 PM 39.3792 -106.9028 178° South 223 257 11,500 -1,500 Descending Denver Center
Thu 12:39:22 PM 39.3275 -106.8994 177° South 205 236 10,000 -1,355 Descending Denver Center
Thu 12:40:24 PM 39.2814 -106.8953 176° South 185 213 8,700 -871 Descending Denver Center
Thu 12:41:26 PM 39.2461 -106.8831 165° South 167 192 8,200 -484 Descending Denver Center

Login

Don't have an account? Register now (free) for customized features, flight alerts, and more!